sensor_id;sensor_type;location;lat;lon;timestamp;pressure;altitude;pressure_sealevel;temperature;humidity
7022;BME280;3552;42.664;23.406;2022-11-09T00:01:04;51131.13;;;-141.28;100.00
7022;BME280;3552;42.664;23.406;2022-11-09T00:03:31;51154.69;;;-141.28;100.00
7022;BME280;3552;42.664;23.406;2022-11-09T00:05:59;51231.25;;;-141.28;100.00
7022;BME280;3552;42.664;23.406;2022-11-09T00:08:27;51256.78;;;-141.28;100.00
7022;BME280;3552;42.664;23.406;2022-11-09T00:11:00;51280.34;;;-141.28;100.00
7022;BME280;3552;42.664;23.406;2022-11-09T00:13:28;51299.97;;;-141.28;100.00
7022;BME280;3552;42.664;23.406;2022-11-09T00:15:57;51323.53;;;-141.28;100.00
7022;BME280;3552;42.664;23.406;2022-11-09T00:18:24;51331.38;;;-141.28;100.00
7022;BME280;3552;42.664;23.406;2022-11-09T00:20:51;51386.34;;;-141.28;100.00
7022;BME280;3552;42.664;23.406;2022-11-09T00:23:18;51380.47;;;-141.28;100.00
7022;BME280;3552;42.664;23.406;2022-11-09T00:25:46;51382.44;;;-141.28;100.00
7022;BME280;3552;42.664;23.406;2022-11-09T00:28:13;51390.28;;;-141.28;100.00
7022;BME280;3552;42.664;23.406;2022-11-09T00:30:40;51305.84;;;-141.28;100.00
7022;BME280;3552;42.664;23.406;2022-11-09T00:33:07;51415.81;;;-141.28;100.00
7022;BME280;3552;42.664;23.406;2022-11-09T00:35:37;51406.00;;;-141.28;100.00
7022;BME280;3552;42.664;23.406;2022-11-09T00:38:03;51441.31;;;-141.28;100.00
7022;BME280;3552;42.664;23.406;2022-11-09T00:40:30;51445.25;;;-141.28;100.00
7022;BME280;3552;42.664;23.406;2022-11-09T00:42:59;51457.03;;;-141.28;100.00
7022;BME280;3552;42.664;23.406;2022-11-09T00:45:26;51451.16;;;-141.28;100.00
7022;BME280;3552;42.664;23.406;2022-11-09T00:47:53;51478.63;;;-141.28;100.00
7022;BME280;3552;42.664;23.406;2022-11-09T00:50:19;51541.47;;;-141.28;100.00
7022;BME280;3552;42.664;23.406;2022-11-09T00:52:46;51539.50;;;-141.28;100.00
7022;BME280;3552;42.664;23.406;2022-11-09T00:55:13;51559.13;;;-141.28;100.00
7022;BME280;3552;42.664;23.406;2022-11-09T00:57:41;51543.44;;;-141.28;100.00
7022;BME280;3552;42.664;23.406;2022-11-09T01:00:11;51539.50;;;-141.28;100.00
7022;BME280;3552;42.664;23.406;2022-11-09T01:02:39;51543.44;;;-141.28;100.00
7022;BME280;3552;42.664;23.406;2022-11-09T01:05:07;51541.47;;;-141.28;100.00
7022;BME280;3552;42.664;23.406;2022-11-09T01:07:35;51510.06;;;-141.28;100.00
7022;BME280;3552;42.664;23.406;2022-11-09T01:10:02;51553.25;;;-141.28;100.00
7022;BME280;3552;42.664;23.406;2022-11-09T01:12:29;51578.78;;;-141.28;100.00
7022;BME280;3552;42.664;23.406;2022-11-09T01:14:56;51545.38;;;-141.28;100.00
7022;BME280;3552;42.664;23.406;2022-11-09T01:17:25;51513.97;;;-141.28;100.00
7022;BME280;3552;42.664;23.406;2022-11-09T01:19:52;50978.00;;;-141.28;100.00
7022;BME280;3552;42.664;23.406;2022-11-09T01:22:18;51476.66;;;-141.28;100.00
7022;BME280;3552;42.664;23.406;2022-11-09T01:24:45;51409.91;;;-141.28;100.00
7022;BME280;3552;42.664;23.406;2022-11-09T01:27:12;51411.88;;;-141.28;100.00
7022;BME280;3552;42.664;23.406;2022-11-09T01:29:39;51370.66;;;-141.28;100.00
7022;BME280;3552;42.664;23.406;2022-11-09T01:32:06;51370.66;;;-141.28;100.00
7022;BME280;3552;42.664;23.406;2022-11-09T01:34:34;51347.09;;;-141.28;100.00
7022;BME280;3552;42.664;23.406;2022-11-09T01:37:01;51288.19;;;-141.28;100.00
7022;BME280;3552;42.664;23.406;2022-11-09T01:39:28;51233.22;;;-141.28;100.00
7022;BME280;3552;42.664;23.406;2022-11-09T01:41:55;51227.31;;;-141.28;100.00
7022;BME280;3552;42.664;23.406;2022-11-09T01:44:26;51164.50;;;-141.28;100.00
7022;BME280;3552;42.664;23.406;2022-11-09T01:46:56;51087.94;;;-141.28;100.00
7022;BME280;3552;42.664;23.406;2022-11-09T01:49:32;51029.03;;;-141.28;100.00
7022;BME280;3552;42.664;23.406;2022-11-09T01:52:08;50820.94;;;-141.28;100.00
7022;BME280;3552;42.664;23.406;2022-11-09T01:54:41;50866.09;;;-141.28;100.00
7022;BME280;3552;42.664;23.406;2022-11-09T01:57:12;50852.34;;;-141.28;100.00
7022;BME280;3552;42.664;23.406;2022-11-09T01:59:43;50852.34;;;-141.28;100.00
7022;BME280;3552;42.664;23.406;2022-11-09T02:02:12;50852.34;;;-141.28;100.00
7022;BME280;3552;42.664;23.406;2022-11-09T02:04:40;50789.53;;;-141.28;100.00
7022;BME280;3552;42.664;23.406;2022-11-09T02:07:10;50738.50;;;-141.28;100.00
7022;BME280;3552;42.664;23.406;2022-11-09T02:09:41;50815.06;;;-141.28;100.00
7022;BME280;3552;42.664;23.406;2022-11-09T02:12:09;50750.28;;;-141.28;100.00
7022;BME280;3552;42.664;23.406;2022-11-09T02:14:36;50793.47;;;-141.28;100.00
7022;BME280;3552;42.664;23.406;2022-11-09T02:17:05;50781.69;;;-141.28;100.00
7022;BME280;3552;42.664;23.406;2022-11-09T02:19:33;50758.13;;;-141.28;100.00
7022;BME280;3552;42.664;23.406;2022-11-09T02:22:02;50760.09;;;-141.28;100.00
7022;BME280;3552;42.664;23.406;2022-11-09T02:24:28;50756.16;;;-141.28;100.00
7022;BME280;3552;42.664;23.406;2022-11-09T02:26:56;50734.56;;;-141.28;100.00
7022;BME280;3552;42.664;23.406;2022-11-09T02:29:25;50746.34;;;-141.28;100.00
7022;BME280;3552;42.664;23.406;2022-11-09T02:31:57;50644.28;;;-141.28;100.00
7022;BME280;3552;42.664;23.406;2022-11-09T02:34:26;50675.69;;;-141.28;100.00
7022;BME280;3552;42.664;23.406;2022-11-09T02:36:52;50640.34;;;-141.28;100.00
7022;BME280;3552;42.664;23.406;2022-11-09T02:39:24;50693.34;;;-141.28;100.00
7022;BME280;3552;42.664;23.406;2022-11-09T02:41:54;50632.50;;;-141.28;100.00
7022;BME280;3552;42.664;23.406;2022-11-09T02:44:22;50612.88;;;-141.28;100.00
7022;BME280;3552;42.664;23.406;2022-11-09T02:46:50;50597.16;;;-141.28;100.00
7022;BME280;3552;42.664;23.406;2022-11-09T02:49:17;50622.69;;;-141.28;100.00
7022;BME280;3552;42.664;23.406;2022-11-09T02:51:44;50610.91;;;-141.28;100.00
7022;BME280;3552;42.664;23.406;2022-11-09T02:54:11;50573.59;;;-141.28;100.00
7022;BME280;3552;42.664;23.406;2022-11-09T02:56:39;50597.16;;;-141.28;100.00
7022;BME280;3552;42.664;23.406;2022-11-09T02:59:06;50561.81;;;-141.28;100.00
7022;BME280;3552;42.664;23.406;2022-11-09T03:01:33;50565.75;;;-141.28;100.00
7022;BME280;3552;42.664;23.406;2022-11-09T03:04:00;50552.00;;;-141.28;100.00
7022;BME280;3552;42.664;23.406;2022-11-09T03:06:26;50546.13;;;-141.28;100.00
7022;BME280;3552;42.664;23.406;2022-11-09T03:09:00;50522.56;;;-141.28;100.00
7022;BME280;3552;42.664;23.406;2022-11-09T03:11:27;50534.34;;;-141.28;100.00
7022;BME280;3552;42.664;23.406;2022-11-09T03:13:55;50538.28;;;-141.28;100.00
7022;BME280;3552;42.664;23.406;2022-11-09T03:16:22;50546.13;;;-141.28;100.00
7022;BME280;3552;42.664;23.406;2022-11-09T03:18:50;50534.34;;;-141.28;100.00
7022;BME280;3552;42.664;23.406;2022-11-09T03:21:17;50557.91;;;-141.28;100.00
7022;BME280;3552;42.664;23.406;2022-11-09T03:23:44;50567.72;;;-141.28;100.00
7022;BME280;3552;42.664;23.406;2022-11-09T03:26:10;50538.28;;;-141.28;100.00
7022;BME280;3552;42.664;23.406;2022-11-09T03:28:37;50369.47;;;-141.28;100.00
7022;BME280;3552;42.664;23.406;2022-11-09T03:31:06;50499.00;;;-141.28;100.00
7022;BME280;3552;42.664;23.406;2022-11-09T03:33:33;50546.13;;;-141.28;100.00
7022;BME280;3552;42.664;23.406;2022-11-09T03:36:00;50550.06;;;-141.28;100.00
7022;BME280;3552;42.664;23.406;2022-11-09T03:38:27;50538.28;;;-141.28;100.00
7022;BME280;3552;42.664;23.406;2022-11-09T03:40:54;50552.00;;;-141.28;100.00
7022;BME280;3552;42.664;23.406;2022-11-09T03:43:21;50565.75;;;-141.28;100.00
7022;BME280;3552;42.664;23.406;2022-11-09T03:45:47;50571.63;;;-141.28;100.00
7022;BME280;3552;42.664;23.406;2022-11-09T03:48:16;50581.47;;;-141.28;100.00
7022;BME280;3552;42.664;23.406;2022-11-09T03:50:42;50597.16;;;-141.28;100.00
7022;BME280;3552;42.664;23.406;2022-11-09T03:53:10;50608.94;;;-141.28;100.00
7022;BME280;3552;42.664;23.406;2022-11-09T03:55:37;50624.63;;;-141.28;100.00
7022;BME280;3552;42.664;23.406;2022-11-09T03:58:06;50601.09;;;-141.28;100.00
7022;BME280;3552;42.664;23.406;2022-11-09T04:00:33;50565.75;;;-141.28;100.00
7022;BME280;3552;42.664;23.406;2022-11-09T04:03:03;50620.72;;;-141.28;100.00
7022;BME280;3552;42.664;23.406;2022-11-09T04:05:31;50628.56;;;-141.28;100.00
7022;BME280;3552;42.664;23.406;2022-11-09T04:07:58;50603.06;;;-141.28;100.00
7022;BME280;3552;42.664;23.406;2022-11-09T04:10:25;50601.09;;;-141.28;100.00
7022;BME280;3552;42.664;23.406;2022-11-09T04:12:53;50618.75;;;-141.28;100.00
7022;BME280;3552;42.664;23.406;2022-11-09T04:15:20;50630.53;;;-141.28;100.00
7022;BME280;3552;42.664;23.406;2022-11-09T04:17:55;50595.19;;;-141.28;100.00
7022;BME280;3552;42.664;23.406;2022-11-09T04:20:22;50644.28;;;-141.28;100.00
7022;BME280;3552;42.664;23.406;2022-11-09T04:22:55;50616.78;;;-141.28;100.00
7022;BME280;3552;42.664;23.406;2022-11-09T04:25:22;50612.88;;;-141.28;100.00
7022;BME280;3552;42.664;23.406;2022-11-09T04:27:53;50616.78;;;-141.28;100.00
7022;BME280;3552;42.664;23.406;2022-11-09T04:30:20;50640.34;;;-141.28;100.00
7022;BME280;3552;42.664;23.406;2022-11-09T04:32:48;50656.06;;;-141.28;100.00
7022;BME280;3552;42.664;23.406;2022-11-09T04:35:15;50644.28;;;-141.28;100.00
7022;BME280;3552;42.664;23.406;2022-11-09T04:37:43;50659.97;;;-141.28;100.00
7022;BME280;3552;42.664;23.406;2022-11-09T04:40:12;50636.41;;;-141.28;100.00
7022;BME280;3552;42.664;23.406;2022-11-09T04:42:39;50640.34;;;-141.28;100.00
7022;BME280;3552;42.664;23.406;2022-11-09T04:45:06;50434.25;;;-141.28;100.00
7022;BME280;3552;42.664;23.406;2022-11-09T04:47:33;50656.06;;;-141.28;100.00
7022;BME280;3552;42.664;23.406;2022-11-09T04:50:00;50650.16;;;-141.28;100.00
7022;BME280;3552;42.664;23.406;2022-11-09T04:52:27;50634.47;;;-141.28;100.00
7022;BME280;3552;42.664;23.406;2022-11-09T04:54:54;50683.53;;;-141.28;100.00
7022;BME280;3552;42.664;23.406;2022-11-09T04:57:23;50714.94;;;-141.28;100.00
7022;BME280;3552;42.664;23.406;2022-11-09T04:59:49;50697.28;;;-141.28;100.00
7022;BME280;3552;42.664;23.406;2022-11-09T05:02:17;50506.88;;;-141.28;100.00
7022;BME280;3552;42.664;23.406;2022-11-09T05:04:45;50781.69;;;-141.28;100.00
7022;BME280;3552;42.664;23.406;2022-11-09T05:07:12;50789.53;;;-141.28;100.00
7022;BME280;3552;42.664;23.406;2022-11-09T05:09:40;50781.69;;;-141.28;100.00
7022;BME280;3552;42.664;23.406;2022-11-09T05:12:10;50840.56;;;-141.28;100.00
7022;BME280;3552;42.664;23.406;2022-11-09T05:14:39;50858.25;;;-141.28;100.00
7022;BME280;3552;42.664;23.406;2022-11-09T05:17:05;50848.44;;;-141.28;100.00
7022;BME280;3552;42.664;23.406;2022-11-09T05:19:33;50883.75;;;-141.28;100.00
7022;BME280;3552;42.664;23.406;2022-11-09T05:22:00;50868.06;;;-141.28;100.00
7022;BME280;3552;42.664;23.406;2022-11-09T05:24:47;50771.88;;;-141.28;100.00
7022;BME280;3552;42.664;23.406;2022-11-09T05:27:16;50809.16;;;-141.28;100.00
7022;BME280;3552;42.664;23.406;2022-11-09T05:29:44;50856.28;;;-141.28;100.00
7022;BME280;3552;42.664;23.406;2022-11-09T05:32:11;50846.47;;;-141.28;100.00
7022;BME280;3552;42.664;23.406;2022-11-09T05:34:37;50913.22;;;-141.28;100.00
7022;BME280;3552;42.664;23.406;2022-11-09T05:37:04;50891.63;;;-141.28;100.00
7022;BME280;3552;42.664;23.406;2022-11-09T05:39:31;50903.41;;;-141.28;100.00
7022;BME280;3552;42.664;23.406;2022-11-09T05:41:58;50907.31;;;-141.28;100.00
7022;BME280;3552;42.664;23.406;2022-11-09T05:44:25;50954.44;;;-141.28;100.00
7022;BME280;3552;42.664;23.406;2022-11-09T05:46:54;50966.22;;;-141.28;100.00
7022;BME280;3552;42.664;23.406;2022-11-09T05:49:21;50938.72;;;-141.28;100.00
7022;BME280;3552;42.664;23.406;2022-11-09T05:51:48;50954.44;;;-141.28;100.00
7022;BME280;3552;42.664;23.406;2022-11-09T05:54:15;50983.88;;;-141.28;100.00
7022;BME280;3552;42.664;23.406;2022-11-09T05:56:42;51009.41;;;-141.28;100.00
7022;BME280;3552;42.664;23.406;2022-11-09T05:59:09;50985.84;;;-141.28;100.00
7022;BME280;3552;42.664;23.406;2022-11-09T06:01:35;51048.66;;;-141.28;100.00
7022;BME280;3552;42.664;23.406;2022-11-09T06:04:04;51097.75;;;-141.28;100.00
7022;BME280;3552;42.664;23.406;2022-11-09T06:06:31;51193.94;;;-141.28;100.00
7022;BME280;3552;42.664;23.406;2022-11-09T06:08:59;51498.28;;;-141.28;100.00
7022;BME280;3552;42.664;23.406;2022-11-09T06:11:26;51600.38;;;-141.28;100.00
7022;BME280;3552;42.664;23.406;2022-11-09T06:13:55;51680.88;;;-141.28;100.00
7022;BME280;3552;42.664;23.406;2022-11-09T06:16:23;51720.16;;;-141.28;100.00
7022;BME280;3552;42.664;23.406;2022-11-09T06:18:51;51415.81;;;-141.28;100.00
7022;BME280;3552;42.664;23.406;2022-11-09T06:21:20;51694.63;;;-141.28;100.00
7022;BME280;3552;42.664;23.406;2022-11-09T06:23:47;51515.94;;;-141.28;100.00
7022;BME280;3552;42.664;23.406;2022-11-09T06:26:14;51680.88;;;-141.28;100.00
7022;BME280;3552;42.664;23.406;2022-11-09T06:28:41;51610.19;;;-141.28;100.00
7022;BME280;3552;42.664;23.406;2022-11-09T06:31:12;51527.72;;;-141.28;100.00
7022;BME280;3552;42.664;23.406;2022-11-09T06:33:39;51229.28;;;-141.28;100.00
7022;BME280;3552;42.664;23.406;2022-11-09T06:36:07;51292.13;;;-141.28;100.00
7022;BME280;3552;42.664;23.406;2022-11-09T06:38:36;51119.34;;;-141.28;100.00
7022;BME280;3552;42.664;23.406;2022-11-09T06:41:03;51005.47;;;-141.28;100.00
7022;BME280;3552;42.664;23.406;2022-11-09T06:43:30;50905.34;;;-141.28;100.00
7022;BME280;3552;42.664;23.406;2022-11-09T06:45:57;50789.53;;;-141.28;100.00
7022;BME280;3552;42.664;23.406;2022-11-09T06:48:25;50714.94;;;-141.28;100.00
7022;BME280;3552;42.664;23.406;2022-11-09T06:50:52;50628.56;;;-141.28;100.00
7022;BME280;3552;42.664;23.406;2022-11-09T06:53:18;50589.31;;;-141.28;100.00
7022;BME280;3552;42.664;23.406;2022-11-09T06:55:47;50628.56;;;-141.28;100.00
7022;BME280;3552;42.664;23.406;2022-11-09T06:58:15;50557.91;;;-141.28;100.00
7022;BME280;3552;42.664;23.406;2022-11-09T07:00:42;50500.97;;;-141.28;100.00
7022;BME280;3552;42.664;23.406;2022-11-09T07:03:12;50491.16;;;-141.28;100.00
7022;BME280;3552;42.664;23.406;2022-11-09T07:05:39;50475.47;;;-141.28;100.00
7022;BME280;3552;42.664;23.406;2022-11-09T07:08:07;50467.59;;;-141.28;100.00
7022;BME280;3552;42.664;23.406;2022-11-09T07:10:34;50479.38;;;-141.28;100.00
7022;BME280;3552;42.664;23.406;2022-11-09T07:13:02;50479.38;;;-141.28;100.00
7022;BME280;3552;42.664;23.406;2022-11-09T07:15:29;50432.28;;;-141.28;100.00
7022;BME280;3552;42.664;23.406;2022-11-09T07:17:57;50461.72;;;-141.28;100.00
7022;BME280;3552;42.664;23.406;2022-11-09T07:20:24;50444.06;;;-141.28;100.00
7022;BME280;3552;42.664;23.406;2022-11-09T07:22:51;50469.56;;;-141.28;100.00
7022;BME280;3552;42.664;23.406;2022-11-09T07:25:19;50467.59;;;-141.28;100.00
7022;BME280;3552;42.664;23.406;2022-11-09T07:27:46;50502.94;;;-141.28;100.00
7022;BME280;3552;42.664;23.406;2022-11-09T07:30:15;50530.41;;;-141.28;100.00
7022;BME280;3552;42.664;23.406;2022-11-09T07:32:42;50495.09;;;-141.28;100.00
7022;BME280;3552;42.664;23.406;2022-11-09T07:35:09;50518.66;;;-141.28;100.00
7022;BME280;3552;42.664;23.406;2022-11-09T07:37:36;50538.28;;;-141.28;100.00
7022;BME280;3552;42.664;23.406;2022-11-09T07:40:03;50514.72;;;-141.28;100.00
7022;BME280;3552;42.664;23.406;2022-11-09T07:42:30;50536.31;;;-141.28;100.00
7022;BME280;3552;42.664;23.406;2022-11-09T07:44:57;50538.28;;;-141.28;100.00
7022;BME280;3552;42.664;23.406;2022-11-09T07:47:26;50542.19;;;-141.28;100.00
7022;BME280;3552;42.664;23.406;2022-11-09T07:49:52;50536.31;;;-141.28;100.00
7022;BME280;3552;42.664;23.406;2022-11-09T07:52:19;50506.88;;;-141.28;100.00
7022;BME280;3552;42.664;23.406;2022-11-09T07:54:46;50475.47;;;-141.28;100.00
7022;BME280;3552;42.664;23.406;2022-11-09T07:57:13;50495.09;;;-141.28;100.00
7022;BME280;3552;42.664;23.406;2022-11-09T07:59:40;50487.25;;;-141.28;100.00
7022;BME280;3552;42.664;23.406;2022-11-09T08:02:07;50440.13;;;-141.28;100.00
7022;BME280;3552;42.664;23.406;2022-11-09T08:04:36;50404.81;;;-141.28;100.00
7022;BME280;3552;42.664;23.406;2022-11-09T08:07:02;50467.59;;;-141.28;100.00
7022;BME280;3552;42.664;23.406;2022-11-09T08:09:29;50593.22;;;-141.28;100.00
7022;BME280;3552;42.664;23.406;2022-11-09T08:11:56;50626.59;;;-141.28;100.00
7022;BME280;3552;42.664;23.406;2022-11-09T08:14:23;50597.16;;;-141.28;100.00
7022;BME280;3552;42.664;23.406;2022-11-09T08:16:50;50581.47;;;-141.28;100.00
7022;BME280;3552;42.664;23.406;2022-11-09T08:19:17;50434.25;;;-141.28;100.00
7022;BME280;3552;42.664;23.406;2022-11-09T08:21:45;50279.19;;;-141.28;100.00
7022;BME280;3552;42.664;23.406;2022-11-09T08:24:13;50184.97;;;-141.28;100.00
7022;BME280;3552;42.664;23.406;2022-11-09T08:26:40;50112.34;;;-141.28;100.00
7022;BME280;3552;42.664;23.406;2022-11-09T08:29:07;50024.03;;;-141.28;100.00
7022;BME280;3552;42.664;23.406;2022-11-09T08:31:34;49992.63;;;-141.28;100.00
7022;BME280;3552;42.664;23.406;2022-11-09T08:34:01;49959.25;;;-141.28;100.00
7022;BME280;3552;42.664;23.406;2022-11-09T08:36:28;49910.19;;;-141.28;100.00
7022;BME280;3552;42.664;23.406;2022-11-09T08:38:58;49898.44;;;-141.28;100.00
7022;BME280;3552;42.664;23.406;2022-11-09T08:41:25;49872.91;;;-141.28;100.00
7022;BME280;3552;42.664;23.406;2022-11-09T08:43:52;49774.78;;;-141.28;100.00
7022;BME280;3552;42.664;23.406;2022-11-09T08:46:19;49794.41;;;-141.28;100.00
7022;BME280;3552;42.664;23.406;2022-11-09T08:48:46;49804.22;;;-141.28;100.00
7022;BME280;3552;42.664;23.406;2022-11-09T08:51:13;49808.16;;;-141.28;100.00
7022;BME280;3552;42.664;23.406;2022-11-09T08:53:41;49829.75;;;-141.28;100.00
7022;BME280;3552;42.664;23.406;2022-11-09T08:56:10;49808.16;;;-141.28;100.00
7022;BME280;3552;42.664;23.406;2022-11-09T08:58:37;49843.47;;;-141.28;100.00
7022;BME280;3552;42.664;23.406;2022-11-09T09:01:06;49833.66;;;-141.28;100.00
7022;BME280;3552;42.664;23.406;2022-11-09T09:03:33;49851.31;;;-141.28;100.00
7022;BME280;3552;42.664;23.406;2022-11-09T09:06:02;49851.31;;;-141.28;100.00
7022;BME280;3552;42.664;23.406;2022-11-09T09:08:28;49855.25;;;-141.28;100.00
7022;BME280;3552;42.664;23.406;2022-11-09T09:10:56;49808.16;;;-141.28;100.00
7022;BME280;3552;42.664;23.406;2022-11-09T09:13:24;49861.13;;;-141.28;100.00
7022;BME280;3552;42.664;23.406;2022-11-09T09:15:51;49821.88;;;-141.28;100.00
7022;BME280;3552;42.664;23.406;2022-11-09T09:18:18;49884.69;;;-141.28;100.00
7022;BME280;3552;42.664;23.406;2022-11-09T09:20:44;49898.44;;;-141.28;100.00
7022;BME280;3552;42.664;23.406;2022-11-09T09:23:12;49910.19;;;-141.28;100.00
7022;BME280;3552;42.664;23.406;2022-11-09T09:25:39;49931.78;;;-141.28;100.00
7022;BME280;3552;42.664;23.406;2022-11-09T09:28:06;49953.38;;;-141.28;100.00
7022;BME280;3552;42.664;23.406;2022-11-09T09:30:35;49986.75;;;-141.28;100.00
7022;BME280;3552;42.664;23.406;2022-11-09T09:33:02;50067.22;;;-141.28;100.00
7022;BME280;3552;42.664;23.406;2022-11-09T09:35:28;50220.28;;;-141.28;100.00
7022;BME280;3552;42.664;23.406;2022-11-09T09:37:58;50340.03;;;-141.28;100.00
7022;BME280;3552;42.664;23.406;2022-11-09T09:40:32;50540.22;;;-141.28;100.00
7022;BME280;3552;42.664;23.406;2022-11-09T09:43:00;50650.16;;;-141.28;100.00
7022;BME280;3552;42.664;23.406;2022-11-09T09:45:30;50750.28;;;-141.28;100.00
7022;BME280;3552;42.664;23.406;2022-11-09T09:48:04;50848.44;;;-141.28;100.00
7022;BME280;3552;42.664;23.406;2022-11-09T09:50:43;51038.84;;;-141.28;100.00
7022;BME280;3552;42.664;23.406;2022-11-09T09:53:15;51272.47;;;-141.28;100.00
7022;BME280;3552;42.664;23.406;2022-11-09T09:55:46;51374.56;;;-141.28;100.00
7022;BME280;3552;42.664;23.406;2022-11-09T09:58:21;51455.06;;;-141.28;100.00
7022;BME280;3552;42.664;23.406;2022-11-09T10:00:51;51586.63;;;-141.28;100.00
7022;BME280;3552;42.664;23.406;2022-11-09T10:03:22;51692.66;;;-141.28;100.00
7022;BME280;3552;42.664;23.406;2022-11-09T10:05:55;51753.53;;;-141.28;100.00
7022;BME280;3552;42.664;23.406;2022-11-09T10:08:33;51908.66;;;-141.28;100.00
7022;BME280;3552;42.664;23.406;2022-11-09T10:11:12;51873.31;;;-141.28;100.00
7022;BME280;3552;42.664;23.406;2022-11-09T10:16:41;51890.97;;;-141.28;100.00
7022;BME280;3552;42.664;23.406;2022-11-09T10:19:24;51792.81;;;-141.28;100.00
7022;BME280;3552;42.664;23.406;2022-11-09T10:21:59;51704.44;;;-141.28;100.00
7022;BME280;3552;42.664;23.406;2022-11-09T10:24:38;51834.03;;;-141.28;100.00
7022;BME280;3552;42.664;23.406;2022-11-09T10:27:16;51830.09;;;-141.28;100.00
7022;BME280;3552;42.664;23.406;2022-11-09T10:29:49;51849.75;;;-141.28;100.00
7022;BME280;3552;42.664;23.406;2022-11-09T10:32:18;51645.53;;;-141.28;100.00
7022;BME280;3552;42.664;23.406;2022-11-09T10:34:53;51382.44;;;-141.28;100.00
7022;BME280;3552;42.664;23.406;2022-11-09T10:37:25;51256.78;;;-141.28;100.00
7022;BME280;3552;42.664;23.406;2022-11-09T10:39:59;51044.75;;;-141.28;100.00
7022;BME280;3552;42.664;23.406;2022-11-09T10:42:28;50909.28;;;-141.28;100.00
7022;BME280;3552;42.664;23.406;2022-11-09T10:44:56;50887.69;;;-141.28;100.00
7022;BME280;3552;42.664;23.406;2022-11-09T10:47:24;50881.78;;;-141.28;100.00
7022;BME280;3552;42.664;23.406;2022-11-09T10:53:07;50909.28;;;-141.28;100.00
7022;BME280;3552;42.664;23.406;2022-11-09T10:55:35;50840.56;;;-141.28;100.00
7022;BME280;3552;42.664;23.406;2022-11-09T10:58:18;50891.63;;;-141.28;100.00
7022;BME280;3552;42.664;23.406;2022-11-09T11:00:57;50903.41;;;-141.28;100.00
7022;BME280;3552;42.664;23.406;2022-11-09T11:03:24;50746.34;;;-141.28;100.00
7022;BME280;3552;42.664;23.406;2022-11-09T11:05:57;50557.91;;;-141.28;100.00
7022;BME280;3552;42.664;23.406;2022-11-09T11:08:29;50416.56;;;-141.28;100.00
7022;BME280;3552;42.664;23.406;2022-11-09T11:11:07;50236.00;;;-141.28;100.00
7022;BME280;3552;42.664;23.406;2022-11-09T11:13:34;50243.84;;;-141.28;100.00
7022;BME280;3552;42.664;23.406;2022-11-09T11:16:12;50133.94;;;-141.28;100.00
7022;BME280;3552;42.664;23.406;2022-11-09T11:18:44;50122.16;;;-141.28;100.00
7022;BME280;3552;42.664;23.406;2022-11-09T11:21:15;50126.09;;;-141.28;100.00
7022;BME280;3552;42.664;23.406;2022-11-09T11:23:42;50110.38;;;-141.28;100.00
7022;BME280;3552;42.664;23.406;2022-11-09T11:26:34;50247.78;;;-141.28;100.00
7022;BME280;3552;42.664;23.406;2022-11-09T11:29:09;50239.94;;;-141.28;100.00
7022;BME280;3552;42.664;23.406;2022-11-09T11:31:41;50122.16;;;-141.28;100.00
7022;BME280;3552;42.664;23.406;2022-11-09T11:34:12;50169.28;;;-141.28;100.00
7022;BME280;3552;42.664;23.406;2022-11-09T11:36:49;50279.19;;;-141.28;100.00
7022;BME280;3552;42.664;23.406;2022-11-09T11:39:31;50279.19;;;-141.28;100.00
7022;BME280;3552;42.664;23.406;2022-11-09T11:42:16;50202.63;;;-141.28;100.00
7022;BME280;3552;42.664;23.406;2022-11-09T11:45:00;50184.97;;;-141.28;100.00
7022;BME280;3552;42.664;23.406;2022-11-09T11:47:38;50202.63;;;-141.28;100.00
7022;BME280;3552;42.664;23.406;2022-11-09T11:50:20;50196.75;;;-141.28;100.00
7022;BME280;3552;42.664;23.406;2022-11-09T11:53:01;50126.09;;;-141.28;100.00
7022;BME280;3552;42.664;23.406;2022-11-09T11:55:43;49971.03;;;-141.28;100.00
7022;BME280;3552;42.664;23.406;2022-11-09T11:58:22;49851.31;;;-141.28;100.00
7022;BME280;3552;42.664;23.406;2022-11-09T12:00:57;49694.31;;;-141.28;100.00
7022;BME280;3552;42.664;23.406;2022-11-09T12:03:41;49572.66;;;-141.28;100.00
7022;BME280;3552;42.664;23.406;2022-11-09T12:06:20;49586.41;;;-141.28;100.00
7022;BME280;3552;42.664;23.406;2022-11-09T12:09:06;49582.47;;;-141.28;100.00
7022;BME280;3552;42.664;23.406;2022-11-09T12:11:46;49564.81;;;-141.28;100.00
7022;BME280;3552;42.664;23.406;2022-11-09T12:14:24;49429.41;;;-141.28;100.00
7022;BME280;3552;42.664;23.406;2022-11-09T12:17:01;49339.16;;;-141.28;100.00
7022;BME280;3552;42.664;23.406;2022-11-09T12:19:48;49056.59;;;-141.28;100.00
7022;BME280;3552;42.664;23.406;2022-11-09T12:22:33;48681.88;;;-141.28;100.00
7022;BME280;3552;42.664;23.406;2022-11-09T12:25:15;48836.88;;;-141.28;100.00
7022;BME280;3552;42.664;23.406;2022-11-09T12:27:59;48485.69;;;-141.28;100.00
7022;BME280;3552;42.664;23.406;2022-11-09T12:30:43;48254.22;;;-141.28;100.00
7022;BME280;3552;42.664;23.406;2022-11-09T12:33:15;48156.16;;;-141.28;100.00
7022;BME280;3552;42.664;23.406;2022-11-09T12:35:48;48132.59;;;-141.28;100.00
7022;BME280;3552;42.664;23.406;2022-11-09T12:38:19;48136.53;;;-141.28;100.00
7022;BME280;3552;42.664;23.406;2022-11-09T12:40:52;48160.06;;;-141.28;100.00
7022;BME280;3552;42.664;23.406;2022-11-09T12:43:24;48101.22;;;-141.28;100.00
7022;BME280;3552;42.664;23.406;2022-11-09T12:45:53;48205.19;;;-141.28;100.00
7022;BME280;3552;42.664;23.406;2022-11-09T12:48:23;48128.69;;;-141.28;100.00
7022;BME280;3552;42.664;23.406;2022-11-09T12:50:51;48093.38;;;-141.28;100.00
7022;BME280;3552;42.664;23.406;2022-11-09T12:53:20;48077.69;;;-141.28;100.00
7022;BME280;3552;42.664;23.406;2022-11-09T12:55:54;48124.75;;;-141.28;100.00
7022;BME280;3552;42.664;23.406;2022-11-09T12:58:25;48101.22;;;-141.28;100.00